Share

Ringling, MT (59642)

MesoWest Deep Creek US12 MP 23.5 MT US MT DOT (MMTDPC) Elev 5870 ft | 46.35 °N, 111.07 °W | Change Station

Current weather conditions updated 50 minutes ago

Overcast
Berawan
30 °F
Feels Like 30 °F
N
1
Angin Variable Angin from Dari Selatan ke Baratdaya
Gusts 1.0 mph
Matahari Terbit 6:33 AM
Matahari Tenggelam 8:13 PM
Moon Waning Gibbous

Today is forecast to be Much Warmer than yesterday.

Tekanan 29.99 Inch
Jarak Pandang 10.0 Mil
Awan Berawan 9500 ft
Angin Dingin 30 °F
Titik Embun 23 °F
Kelembaban 75%
Rainfall 0.00 Inch
Snow Depth Not available.
UV 0 out of 16
Pollen 5.50 out of 12
Air Quality Not available.
Flu Activity Sporadic
METAR KBZN 170956Z AUTO 14005KT 10SM OVC095 02/M01 A2997 RMK AO2 SLP155 T00221011

More Conditions Fewer Conditions

Tekanan 29.99 Inch
Jarak Pandang 10.0 Mil
Awan Berawan 9500 ft
Angin Dingin 30 °F
Titik Embun 23 °F
Kelembaban 75%
Rainfall 0.00 Inch
Snow Depth Not available.
UV 0 out of 16
Pollen 5.50 out of 12
Air Quality Not available.
Flu Activity Sporadic
METAR KBZN 170956Z AUTO 14005KT 10SM OVC095 02/M01 A2997 RMK AO2 SLP155 T00221011

More Conditions Fewer Conditions

10-Day Forecast

Almanac

Astronomi

Apr. 17, 2014 Rise Set
Actual Time 6:33 AM MDT 8:13 PM MDT
Civil Twilight 6:01 AM MDT 8:45 PM MDT
Nautical Twilight 5:22 AM MDT 9:24 PM MDT
Astronomical Twilight 4:41 AM MDT 10:06 PM MDT
Moon 11:10 PM MDT 8:01 AM MDT
Length Of Visible Light 14h 44m
Lama Satu Hari
13h 40m
Tomorrow will be 3m 7s longer.
Waning Gibbous, 95% of the Moon is Illuminated
Siang Ini
Waning Gibbous
Apr 22
Kuartil Terakhir
Apr 29
New
May 6
Triwulan Pertama
May 14
Bulan Purnama

Today's Extremes

State Highs State Lows

Community

  • Sunset over the Bay
    Sunset over the Bay
  • symphony in blue....
    symphony in blue....
  • Dawn Surprise
    Dawn Surprise
  • Yucca delight
    Yucca delight
  • Sunset inside of the Ocean
    Sunset inside of the Ocean

WunderPhotos

Upload Photos

1,701,899 photos uploaded!

WunderBlogs® & News

Nearby

Snow Depth

Station Depth Elevation
Porcupine 28 in 6500 ft
South Fork Shields 73 in 8100 ft
Pickfoot Creek 43 in 6650 ft
Boulder Mountain 81 in 7950 ft
Sacajawea 53 in 6550 ft

Coastal Water Temperatures

Lokasi Temperatur
No Stations Reporting

Earthquake Activity

City Distance Mag. Time & Date
No recent earthquake activity has been reported nearby.
Minimum magnitude displayed is 2.5.

Nearby Weather Stations

Station Location Temp Angin Dingin Titik Embun Kelembaban Angin Precip. Elev Telah Diperbaharui Type
MesoWest Deep Creek US12 MP 23.5 , Ringling, MT 30 °F 30 °F 23 °F 75% Dari Selatan ke Baratdaya  Pada  1 mph 0.00 Inch / hr 5870 ft 3:10 AM MDT MADIS
RAWS WHITE SULPHUR SPRING MT, White Sulphur Springs, MT 32 °F 26 °F 28 °F 86% Arah Timur Laut  Pada  7 mph 0.00 Inch / hr 5060 ft 2:57 AM MDT MADIS

Show More Stations Show Fewer Stations

What do you think?

We're not finished. Please let us know what you like, what you don't like, and what you are still missing.